Time;durP1;ratioP1;P1;durP2;ratioP2;P2;SDS_P1;SDS_P2;PMS_P1;PMS_P2;Temp;Humidity;BMP_temperature;BMP_pressure;BME280_temperature;BME280_humidity;BME280_pressure;Samples;Min_cycle;Max_cycle;Signal;HPM_P1;HPM_P2
2023/02/03 00:01:03;;;;;;;8.40;7.70;;;;;;;6.18;100.00;100717.50;5034331;28;20635;-81
2023/02/03 00:03:29;;;;;;;8.80;7.90;;;;;;;6.23;100.00;100715.81;5034752;28;20261;-80
2023/02/03 00:05:56;;;;;;;9.50;8.67;;;;;;;6.24;100.00;100714.94;5034658;28;20217;-81
2023/02/03 00:08:23;;;;;;;12.47;11.27;;;;;;;6.29;100.00;100716.69;5034538;28;20786;-82
2023/02/03 00:10:50;;;;;;;12.17;11.07;;;;;;;6.41;100.00;100715.00;5034395;28;20277;-82
2023/02/03 00:13:18;;;;;;;14.37;13.07;;;;;;;6.46;100.00;100713.25;5019650;28;20675;-82
2023/02/03 00:15:44;;;;;;;14.30;12.90;;;;;;;6.50;100.00;100721.06;5026653;28;20335;-82
2023/02/03 00:18:10;;;;;;;14.27;12.77;;;;;;;6.52;100.00;100713.25;5034751;28;20229;-81
2023/02/03 00:20:37;;;;;;;15.97;14.37;;;;;;;6.57;100.00;100709.81;5034353;28;20213;-83
2023/02/03 00:23:04;;;;;;;15.40;14.00;;;;;;;6.57;100.00;100708.97;5035830;28;20214;-81
2023/02/03 00:25:31;;;;;;;18.23;15.27;;;;;;;6.56;100.00;100705.50;5038313;28;20209;-82
2023/02/03 00:27:57;;;;;;;16.40;14.70;;;;;;;6.62;100.00;100683.91;5037572;28;20230;-83
2023/02/03 00:30:25;;;;;;;18.17;16.13;;;;;;;6.61;100.00;100689.94;5037828;28;20222;-81
2023/02/03 00:32:52;;;;;;;17.30;15.57;;;;;;;6.64;100.00;100699.44;5038166;28;20630;-82
2023/02/03 00:35:18;;;;;;;21.73;17.17;;;;;;;6.62;100.00;100701.19;5038833;28;20259;-82
2023/02/03 00:37:44;;;;;;;19.17;17.17;;;;;;;6.63;100.00;100692.56;5038907;28;20233;-83
2023/02/03 00:40:12;;;;;;;18.73;16.93;;;;;;;6.65;100.00;100691.69;5038647;28;20261;-81
2023/02/03 00:42:39;;;;;;;19.40;17.30;;;;;;;6.69;100.00;100695.16;5028535;28;20209;-82
2023/02/03 00:45:06;;;;;;;22.17;17.47;;;;;;;6.74;100.00;100701.22;5018699;28;20224;-81
2023/02/03 00:47:33;;;;;;;24.33;18.10;;;;;;;6.75;100.00;100706.38;5018745;28;20227;-81
2023/02/03 00:50:00;;;;;;;20.93;18.97;;;;;;;6.79;100.00;100712.44;5018073;28;20221;-81
2023/02/03 00:52:26;;;;;;;20.63;18.43;;;;;;;6.84;100.00;100726.31;5018241;28;20238;-80
2023/02/03 00:54:52;;;;;;;22.23;19.07;;;;;;;6.87;100.00;100731.47;5018891;28;20681;-81
2023/02/03 00:57:19;;;;;;;22.50;19.90;;;;;;;6.90;100.00;100734.09;5018450;28;20724;-82
2023/02/03 00:59:45;;;;;;;19.83;17.73;;;;;;;6.89;100.00;100739.28;5018519;28;20816;-83
2023/02/03 01:02:11;;;;;;;25.50;19.23;;;;;;;6.96;100.00;100749.66;5019068;28;20924;-82
2023/02/03 01:04:39;;;;;;;21.00;18.73;;;;;;;7.03;100.00;100752.25;5019119;28;20208;-82
2023/02/03 01:07:05;;;;;;;20.53;18.60;;;;;;;7.00;100.00;100753.13;5019504;28;20274;-81
2023/02/03 01:09:33;;;;;;;20.27;18.17;;;;;;;7.09;100.00;100763.50;5018113;28;20832;-81
2023/02/03 01:12:00;;;;;;;19.83;17.60;;;;;;;7.09;100.00;100765.25;5019008;28;20220;-80
2023/02/03 01:14:27;;;;;;;20.20;18.03;;;;;;;7.10;100.00;100774.78;5018924;28;20210;-82
2023/02/03 01:16:53;;;;;;;19.80;18.10;;;;;;;7.08;100.00;100768.72;5019073;28;20231;-81
2023/02/03 01:19:19;;;;;;;20.47;18.37;;;;;;;7.09;100.00;100760.03;5019129;28;20205;-82
2023/02/03 01:21:47;;;;;;;19.67;17.53;;;;;;;7.08;100.00;100766.97;5019049;28;20210;-81
2023/02/03 01:24:14;;;;;;;19.97;18.03;;;;;;;7.14;100.00;100782.56;5018427;28;20676;-81
2023/02/03 01:26:41;;;;;;;24.27;17.40;;;;;;;7.16;100.00;100792.94;5019526;28;20244;-80
2023/02/03 01:29:08;;;;;;;20.20;17.57;;;;;;;7.12;100.00;100797.25;5018739;28;20233;-81
2023/02/03 01:31:38;;;;;;;19.03;17.33;;;;;;;7.11;100.00;100794.66;5018882;28;20212;-81
2023/02/03 01:34:06;;;;;;;17.07;15.33;;;;;;;7.19;100.00;100798.13;5018061;28;20238;-82
2023/02/03 01:36:34;;;;;;;17.67;16.03;;;;;;;7.26;100.00;100802.47;5018400;28;20373;-82
2023/02/03 01:39:02;;;;;;;17.67;16.17;;;;;;;7.24;100.00;100817.19;5019404;28;20209;-82
2023/02/03 01:41:32;;;;;;;18.27;16.20;;;;;;;7.35;100.00;100830.16;5018496;28;20214;-83
2023/02/03 01:44:00;;;;;;;16.33;14.83;;;;;;;7.33;100.00;100824.09;5018648;28;20209;-83
2023/02/03 01:46:30;;;;;;;15.20;14.00;;;;;;;7.34;100.00;100831.03;5018665;28;20214;-83
2023/02/03 01:49:06;;;;;;;20.07;15.13;;;;;;;7.36;100.00;100831.91;5018294;28;20260;-83
2023/02/03 01:51:32;;;;;;;15.87;13.73;;;;;;;7.42;100.00;100842.28;5018998;28;20198;-83
2023/02/03 01:54:00;;;;;;;15.00;13.57;;;;;;;7.39;100.00;100846.59;5019424;28;20217;-84
2023/02/03 01:56:32;;;;;;;16.00;14.57;;;;;;;7.42;100.00;100855.28;5001133;28;20212;-82
2023/02/03 01:58:59;;;;;;;16.47;15.07;;;;;;;7.37;100.00;100846.59;5018580;28;20277;-82
2023/02/03 02:01:26;;;;;;;16.00;14.70;;;;;;;7.35;100.00;100823.25;5018699;28;20209;-83
2023/02/03 02:03:58;;;;;;;17.20;15.63;;;;;;;7.34;100.00;100826.69;5019163;28;20214;-83
2023/02/03 02:06:25;;;;;;;15.83;14.23;;;;;;;7.40;100.00;100836.22;5018810;28;20209;-83
2023/02/03 02:08:53;;;;;;;14.53;13.27;;;;;;;7.39;100.00;100829.28;5019118;28;20256;-83
2023/02/03 02:11:21;;;;;;;14.20;12.70;;;;;;;7.40;100.00;100818.06;5017693;28;20812;-81
2023/02/03 02:13:52;;;;;;;14.37;12.97;;;;;;;7.43;100.00;100828.44;5022158;28;20206;-80
2023/02/03 02:16:26;;;;;;;12.93;11.87;;;;;;;7.48;100.00;100823.25;5016062;28;20215;-79
2023/02/03 02:19:08;;;;;;;13.53;12.33;;;;;;;7.46;100.00;100814.59;5015414;28;20194;-82
2023/02/03 02:21:51;;;;;;;13.27;12.07;;;;;;;7.50;100.00;100822.38;5015249;28;20214;-80
2023/02/03 02:24:46;;;;;;;13.40;12.30;;;;;;;7.59;100.00;100824.13;5015904;28;20215;-79
2023/02/03 02:27:27;;;;;;;12.07;11.13;;;;;;;7.59;100.00;100844.91;5016088;28;20720;-80
2023/02/03 02:30:40;;;;;;;13.03;11.53;;;;;;;7.64;100.00;100855.28;5015249;28;20716;-78
2023/02/03 02:33:19;;;;;;;12.47;11.47;;;;;;;7.63;100.00;100867.41;5000965;28;20263;-81
2023/02/03 02:35:56;;;;;;;11.87;10.90;;;;;;;7.54;100.00;100868.25;5016054;28;20613;-81
2023/02/03 02:38:35;;;;;;;11.63;10.43;;;;;;;7.59;100.00;100841.41;5016418;28;20230;-81
2023/02/03 02:41:08;;;;;;;13.87;10.90;;;;;;;7.72;100.00;100843.16;5016230;28;20271;-81
2023/02/03 02:43:40;;;;;;;11.93;10.73;;;;;;;7.71;100.00;100854.41;5016911;28;20203;-81
2023/02/03 02:46:11;;;;;;;11.43;10.17;;;;;;;7.62;100.00;100854.41;5030859;28;20209;-79
2023/02/03 02:48:45;;;;;;;11.70;10.80;;;;;;;7.63;100.00;100861.34;5035875;28;20274;-81
2023/02/03 02:51:14;;;;;;;11.07;10.07;;;;;;;7.55;100.00;100854.44;5035591;28;20257;-80
2023/02/03 02:53:47;;;;;;;10.30;9.33;;;;;;;7.65;99.98;100867.41;5035512;28;20212;-81
2023/02/03 02:56:16;;;;;;;10.37;9.47;;;;;;;7.66;99.57;100879.53;5035235;28;20716;-81
2023/02/03 02:58:46;;;;;;;10.73;9.67;;;;;;;7.71;98.96;100870.00;5035687;28;20201;-82
2023/02/03 03:01:13;;;;;;;10.97;10.07;;;;;;;7.75;98.48;100893.41;5035656;28;20207;-83
2023/02/03 03:03:43;;;;;;;11.30;10.10;;;;;;;7.65;98.85;100868.28;5035452;28;20212;-84
2023/02/03 03:06:14;;;;;;;11.27;10.27;;;;;;;7.58;99.18;100870.88;5035498;28;20279;-81
2023/02/03 03:08:44;;;;;;;16.23;10.37;;;;;;;7.56;99.15;100852.69;5035279;28;20255;-81
2023/02/03 03:11:11;;;;;;;14.60;9.30;;;;;;;7.58;98.90;100844.91;5035517;28;20676;-81
2023/02/03 03:13:41;;;;;;;9.90;9.20;;;;;;;7.64;98.04;100887.31;5017439;28;20664;-81
2023/02/03 03:16:11;;;;;;;11.23;10.03;;;;;;;7.73;97.42;100883.84;5016315;28;20187;-83
2023/02/03 03:18:43;;;;;;;9.53;8.57;;;;;;;7.67;97.15;100876.94;5015094;28;20209;-82
2023/02/03 03:21:13;;;;;;;9.20;8.40;;;;;;;7.69;97.05;100884.72;5015080;28;20214;-80
2023/02/03 03:23:44;;;;;;;9.77;8.77;;;;;;;7.72;95.84;100903.78;5015369;28;20261;-82
2023/02/03 03:26:14;;;;;;;9.07;8.27;;;;;;;7.76;96.76;100922.84;5015865;28;20212;-81
2023/02/03 03:28:47;;;;;;;10.37;9.33;;;;;;;7.77;95.75;100922.00;5015369;28;20252;-82
2023/02/03 03:31:15;;;;;;;10.20;9.50;;;;;;;7.71;95.64;100935.84;5015337;28;20302;-79
2023/02/03 03:33:42;;;;;;;9.27;8.40;;;;;;;7.80;95.44;100934.97;5016231;28;20205;-81
2023/02/03 03:36:18;;;;;;;9.07;8.27;;;;;;;7.84;95.26;100946.22;5016603;28;20268;-80
2023/02/03 03:38:53;;;;;;;9.97;8.97;;;;;;;7.76;94.17;100964.41;5015444;28;20214;-82
2023/02/03 03:41:29;;;;;;;8.87;8.03;;;;;;;7.76;93.98;100952.28;5015863;28;20189;-80
2023/02/03 03:43:59;;;;;;;8.80;7.70;;;;;;;7.82;94.73;100943.63;5016123;28;20285;-80
2023/02/03 03:46:30;;;;;;;9.13;8.23;;;;;;;7.77;94.06;100945.38;5016418;28;20191;-80
2023/02/03 03:49:02;;;;;;;8.83;7.93;;;;;;;7.73;94.46;100934.09;5016557;28;20259;-81
2023/02/03 03:51:34;;;;;;;9.10;8.20;;;;;;;7.73;94.31;100933.22;5015168;28;20230;-81
2023/02/03 03:54:05;;;;;;;9.50;8.43;;;;;;;7.78;94.14;100928.03;5027382;28;20653;-80
2023/02/03 03:56:36;;;;;;;8.93;8.20;;;;;;;7.73;94.42;100931.50;5028231;28;20299;-79
2023/02/03 03:59:06;;;;;;;9.60;8.87;;;;;;;7.79;95.16;100916.75;5031620;28;20213;-80
2023/02/03 04:01:33;;;;;;;10.20;9.20;;;;;;;7.76;95.18;100897.72;5032212;28;20216;-80
2023/02/03 04:04:05;;;;;;;9.30;7.97;;;;;;;7.72;94.42;100901.19;5036941;28;20208;-79
2023/02/03 04:06:31;;;;;;;9.20;8.43;;;;;;;7.73;95.41;100873.44;5040781;28;20228;-80
2023/02/03 04:08:58;;;;;;;10.23;9.23;;;;;;;7.76;95.18;100869.13;5031720;28;20237;-80
2023/02/03 04:14:08;;;;;;;8.50;7.80;;;;;;;7.66;95.12;100877.78;5031164;28;20237;-80
2023/02/03 04:16:34;;;;;;;9.37;8.57;;;;;;;7.75;94.44;100874.34;5031216;28;20230;-80
2023/02/03 04:19:02;;;;;;;10.60;8.20;;;;;;;7.80;94.22;100880.38;5031447;28;20209;-80
2023/02/03 04:21:28;;;;;;;9.47;8.60;;;;;;;7.79;94.30;100870.00;5031538;28;20200;-81
2023/02/03 04:23:55;;;;;;;9.30;8.50;;;;;;;7.76;93.74;100902.91;5029428;28;20237;-79
2023/02/03 04:26:22;;;;;;;13.47;9.80;;;;;;;7.75;94.30;100906.38;5030961;28;20206;-80
2023/02/03 04:28:48;;;;;;;8.17;7.43;;;;;;;7.74;94.04;100898.59;5022904;28;20210;-83
2023/02/03 04:31:14;;;;;;;8.67;7.77;;;;;;;7.80;93.69;100908.13;5019165;28;20229;-82
2023/02/03 04:33:41;;;;;;;9.33;8.53;;;;;;;7.79;94.08;100911.56;5022723;28;20212;-84
2023/02/03 04:36:09;;;;;;;7.87;7.27;;;;;;;7.64;94.77;100884.72;5023810;28;20632;-82
2023/02/03 04:38:36;;;;;;;8.80;7.60;;;;;;;7.72;93.15;100898.56;5038495;28;20228;-84
2023/02/03 04:41:02;;;;;;;10.80;7.60;;;;;;;7.79;93.30;100906.38;5038659;28;20205;-83
2023/02/03 04:43:28;;;;;;;8.27;7.60;;;;;;;7.78;93.53;100902.06;5038634;28;20683;-83
2023/02/03 04:45:55;;;;;;;7.83;7.13;;;;;;;7.78;93.64;100902.91;5039234;28;20217;-82
2023/02/03 04:48:21;;;;;;;7.67;7.07;;;;;;;7.80;92.55;100914.19;5038285;28;20276;-84
2023/02/03 04:50:47;;;;;;;8.67;7.63;;;;;;;7.83;93.20;100924.59;5026332;28;20225;-83
2023/02/03 04:53:15;;;;;;;8.33;7.53;;;;;;;7.86;93.07;100934.09;5038746;28;20272;-83
2023/02/03 04:55:41;;;;;;;10.13;7.47;;;;;;;7.84;92.22;100928.03;5039111;28;20212;-82
2023/02/03 04:58:08;;;;;;;7.90;7.10;;;;;;;7.89;92.79;100919.38;5038550;28;20230;-82
2023/02/03 05:00:34;;;;;;;7.47;6.77;;;;;;;7.78;92.97;100905.50;5038611;28;20278;-83
2023/02/03 05:03:01;;;;;;;9.93;7.50;;;;;;;7.87;92.88;100902.91;5038708;28;20209;-82
2023/02/03 05:05:27;;;;;;;8.97;7.43;;;;;;;7.90;92.85;100913.31;5039028;28;20243;-85
2023/02/03 05:07:54;;;;;;;8.57;7.77;;;;;;;7.81;92.65;100915.03;5037790;28;20226;-82
2023/02/03 05:10:21;;;;;;;13.40;7.80;;;;;;;7.84;92.95;100882.13;5057912;22;20662;-80
2023/02/03 05:12:48;;;;;;;8.90;7.77;;;;;;;7.81;93.22;100887.34;5036173;28;20204;-80
2023/02/03 05:15:14;;;;;;;7.87;6.77;;;;;;;7.86;92.65;100898.56;5035851;28;20213;-80
2023/02/03 05:17:40;;;;;;;8.33;7.47;;;;;;;7.85;93.07;100889.06;5036408;28;20209;-80
2023/02/03 05:20:08;;;;;;;8.00;7.40;;;;;;;7.88;93.05;100890.78;5035684;28;20862;-80
2023/02/03 05:22:35;;;;;;;8.30;7.53;;;;;;;7.87;93.31;100891.63;5035435;28;20663;-79
2023/02/03 05:25:01;;;;;;;7.70;6.77;;;;;;;7.80;93.51;100882.13;5036002;28;20293;-80
2023/02/03 05:27:29;;;;;;;8.70;7.60;;;;;;;7.77;nan;100877.81;5035819;28;20213;-80
2023/02/03 05:29:56;;;;;;;9.37;7.10;;;;;;;7.78;92.73;100861.34;5035523;28;20227;-80
2023/02/03 05:32:22;;;;;;;8.50;7.67;;;;;;;7.81;92.77;100873.44;5035646;28;20232;-82
2023/02/03 05:34:48;;;;;;;8.10;7.40;;;;;;;7.91;92.49;100880.41;5035946;28;20214;-80
2023/02/03 05:37:15;;;;;;;7.50;6.77;;;;;;;7.82;92.57;100865.66;5035424;28;20207;-80
2023/02/03 05:39:41;;;;;;;9.10;7.40;;;;;;;7.81;92.90;100843.16;5035363;28;20230;-79
2023/02/03 05:42:06;;;;;;;7.73;6.97;;;;;;;7.82;93.22;100842.28;5035060;28;20679;-80
2023/02/03 05:44:34;;;;;;;8.23;6.50;;;;;;;7.85;91.92;100844.00;5035348;28;20259;-81
2023/02/03 05:47:00;;;;;;;7.03;6.37;;;;;;;7.86;92.24;100863.94;5035430;28;20259;-80
2023/02/03 05:49:27;;;;;;;8.07;6.43;;;;;;;7.83;92.42;100864.81;5035635;28;20656;-80
2023/02/03 05:51:54;;;;;;;6.77;5.83;;;;;;;7.84;92.61;100852.69;5034903;28;20703;-80
2023/02/03 05:54:21;;;;;;;7.00;5.60;;;;;;;7.80;93.24;100835.34;5035493;28;20256;-79
2023/02/03 05:56:47;;;;;;;7.17;6.47;;;;;;;7.81;93.05;100829.28;5034837;28;20263;-80
2023/02/03 05:59:14;;;;;;;7.90;5.80;;;;;;;7.84;92.49;100830.13;5035601;28;20282;-80
2023/02/03 06:01:41;;;;;;;10.03;6.03;;;;;;;7.88;92.35;100842.25;5034535;28;20259;-79
2023/02/03 06:04:08;;;;;;;6.87;6.03;;;;;;;7.82;92.79;100808.50;5035495;28;20283;-80
2023/02/03 06:06:40;;;;;;;5.53;5.03;;;;;;;7.76;93.21;100818.91;5035522;28;20212;-81
2023/02/03 06:09:08;;;;;;;7.50;5.17;;;;;;;7.79;93.71;100824.09;5034517;28;20244;-81
2023/02/03 06:11:35;;;;;;;7.13;5.33;;;;;;;7.74;93.43;100799.84;5036356;28;20327;-82
2023/02/03 06:14:02;;;;;;;12.00;5.63;;;;;;;7.79;94.46;100786.84;5034867;28;20629;-79
2023/02/03 06:16:29;;;;;;;6.53;5.03;;;;;;;7.71;94.54;100779.03;5034973;28;20212;-80
2023/02/03 06:18:59;;;;;;;7.40;5.30;;;;;;;7.74;94.75;100758.28;5034803;28;20742;-80
2023/02/03 06:21:26;;;;;;;5.87;5.27;;;;;;;7.74;95.21;100756.53;5033327;28;20622;-81
2023/02/03 06:23:53;;;;;;;7.20;5.70;;;;;;;7.70;95.79;100759.16;5034061;28;20297;-80
2023/02/03 06:26:20;;;;;;;5.87;5.30;;;;;;;7.75;95.19;100762.63;5034942;28;20215;-81
2023/02/03 06:28:46;;;;;;;6.63;5.50;;;;;;;7.78;95.89;100736.59;5034812;28;20204;-80
2023/02/03 06:31:12;;;;;;;5.97;5.43;;;;;;;7.64;96.50;100727.97;5034553;28;20225;-79
2023/02/03 06:33:39;;;;;;;6.60;6.00;;;;;;;7.66;97.21;100713.25;5034793;28;20749;-81
2023/02/03 06:36:07;;;;;;;5.90;5.40;;;;;;;7.62;97.49;100699.41;5035043;28;20217;-80
2023/02/03 06:38:33;;;;;;;6.33;5.63;;;;;;;7.68;97.63;100703.72;5035374;28;20245;-79
2023/02/03 06:40:59;;;;;;;6.93;4.90;;;;;;;7.68;97.55;100693.31;5034669;28;20210;-80
2023/02/03 06:43:26;;;;;;;7.97;4.70;;;;;;;7.72;97.74;100682.06;5034924;28;20683;-81
2023/02/03 06:45:52;;;;;;;6.30;5.40;;;;;;;7.74;97.88;100672.53;5034642;28;20255;-80
2023/02/03 06:48:18;;;;;;;4.67;4.30;;;;;;;7.66;98.38;100684.69;5034715;28;20244;-79
2023/02/03 06:50:45;;;;;;;5.03;4.53;;;;;;;7.61;99.05;100658.72;5033269;28;20248;-80
2023/02/03 06:53:12;;;;;;;7.17;5.23;;;;;;;7.67;99.15;100648.31;5033785;28;20228;-80
2023/02/03 06:55:39;;;;;;;5.63;4.87;;;;;;;7.54;99.92;100642.28;5033771;28;20209;-81
2023/02/03 06:58:05;;;;;;;7.20;5.10;;;;;;;7.60;99.81;100622.34;5034267;28;20212;-81
2023/02/03 07:00:31;;;;;;;3.93;3.63;;;;;;;7.53;100.00;100601.59;5033761;28;20231;-80
2023/02/03 07:02:58;;;;;;;5.00;4.60;;;;;;;7.56;100.00;100608.50;5034058;28;20583;-81
2023/02/03 07:05:26;;;;;;;5.20;4.80;;;;;;;7.58;100.00;100592.91;5033061;28;20592;-81
2023/02/03 07:07:53;;;;;;;5.20;4.43;;;;;;;7.46;100.00;100576.50;5033331;28;20208;-79
2023/02/03 07:10:21;;;;;;;5.97;5.17;;;;;;;7.39;100.00;100538.44;5032878;28;20283;-79
2023/02/03 07:12:49;;;;;;;7.73;5.77;;;;;;;7.39;100.00;100494.28;5033404;28;20596;-80
2023/02/03 07:15:16;;;;;;;6.00;5.43;;;;;;;7.27;100.00;100470.97;5033437;28;20670;-78
2023/02/03 07:17:42;;;;;;;7.83;5.70;;;;;;;7.27;100.00;100468.38;5033562;28;20553;-79
2023/02/03 07:20:09;;;;;;;6.07;5.33;;;;;;;7.30;100.00;100440.69;5037775;28;20233;-78
2023/02/03 07:22:37;;;;;;;6.27;5.20;;;;;;;7.29;100.00;100444.13;5052727;28;20215;-78
2023/02/03 07:25:04;;;;;;;5.80;5.40;;;;;;;7.35;100.00;100444.13;5052364;28;20303;-78
2023/02/03 07:27:32;;;;;;;4.40;3.97;;;;;;;7.34;100.00;100454.50;5052678;28;20220;-77
2023/02/03 07:29:58;;;;;;;5.97;4.63;;;;;;;7.40;100.00;100457.06;5045934;28;20720;-78
2023/02/03 07:32:24;;;;;;;4.67;4.27;;;;;;;7.32;100.00;100454.50;5022839;28;20279;-78
2023/02/03 07:34:51;;;;;;;4.97;4.60;;;;;;;7.36;100.00;100463.16;5021683;28;20198;-78
2023/02/03 07:37:17;;;;;;;4.80;4.40;;;;;;;7.38;100.00;100455.38;5025546;28;20282;-78
2023/02/03 07:39:44;;;;;;;4.53;4.13;;;;;;;7.36;100.00;100452.78;5022677;28;20225;-78
2023/02/03 07:42:11;;;;;;;4.30;3.97;;;;;;;7.42;100.00;100451.88;5023340;28;20285;-81
2023/02/03 07:44:39;;;;;;;4.07;3.77;;;;;;;7.49;100.00;100448.34;5023817;28;20204;-78
2023/02/03 07:47:05;;;;;;;3.67;3.37;;;;;;;7.47;100.00;100450.09;5023696;28;20216;-80
2023/02/03 07:49:31;;;;;;;3.43;3.23;;;;;;;7.46;100.00;100448.38;5024438;28;20232;-79
2023/02/03 07:51:58;;;;;;;2.90;2.70;;;;;;;7.52;100.00;100450.94;5028559;28;20247;-78
2023/02/03 07:54:24;;;;;;;3.20;3.00;;;;;;;7.50;100.00;100450.09;5024896;28;20204;-80
2023/02/03 07:56:50;;;;;;;3.10;2.90;;;;;;;7.50;100.00;100426.72;5024338;28;21102;-79
2023/02/03 07:59:17;;;;;;;3.20;2.90;;;;;;;7.54;100.00;100437.06;5023919;28;20270;-80
2023/02/03 08:01:45;;;;;;;3.00;2.80;;;;;;;7.60;100.00;100456.94;5023048;28;20202;-78
2023/02/03 08:04:15;;;;;;;2.13;2.00;;;;;;;7.52;100.00;100435.38;5022649;28;20747;-81
2023/02/03 08:06:41;;;;;;;3.53;2.43;;;;;;;7.60;100.00;100451.75;5023613;28;20699;-80
2023/02/03 08:09:07;;;;;;;2.53;2.03;;;;;;;7.53;100.00;100450.94;5023512;28;20228;-80
2023/02/03 08:11:34;;;;;;;3.50;2.77;;;;;;;7.55;100.00;100431.00;5022019;28;20221;-79
2023/02/03 08:14:00;;;;;;;2.57;2.37;;;;;;;7.48;100.00;100446.66;5024287;28;20201;-79
2023/02/03 08:16:27;;;;;;;2.37;2.27;;;;;;;7.48;100.00;100433.66;5022240;28;20210;-78
2023/02/03 08:18:54;;;;;;;3.80;3.50;;;;;;;7.49;100.00;100410.28;5024634;28;20777;-79
2023/02/03 08:21:20;;;;;;;2.73;2.53;;;;;;;7.46;100.00;100407.69;5025553;28;20199;-79
2023/02/03 08:23:47;;;;;;;2.67;2.47;;;;;;;7.53;100.00;100429.28;5030301;28;20209;-80
2023/02/03 08:26:13;;;;;;;2.53;2.10;;;;;;;7.59;100.00;100431.88;5023986;28;20200;-79
2023/02/03 08:28:40;;;;;;;2.70;2.10;;;;;;;7.62;100.00;100463.00;5021674;28;20252;-78
2023/02/03 08:31:09;;;;;;;2.60;2.27;;;;;;;7.70;100.00;100475.94;5021337;28;20263;-75
2023/02/03 08:33:36;;;;;;;2.57;2.23;;;;;;;7.78;100.00;100494.94;5022232;28;20203;-78
2023/02/03 08:36:04;;;;;;;2.97;2.37;;;;;;;7.84;100.00;100478.44;5023613;28;20201;-78
2023/02/03 08:38:31;;;;;;;1.97;1.87;;;;;;;7.81;100.00;100487.13;5023351;28;21705;-78
2023/02/03 08:40:57;;;;;;;3.07;2.00;;;;;;;7.84;100.00;100514.81;5021804;28;20874;-79
2023/02/03 08:43:23;;;;;;;2.00;1.90;;;;;;;7.89;100.00;100521.72;5023273;28;20664;-79
2023/02/03 08:45:50;;;;;;;2.90;2.20;;;;;;;7.95;100.00;100545.06;5027445;28;20196;-78
2023/02/03 08:48:16;;;;;;;2.73;2.30;;;;;;;8.00;100.00;100577.97;5027267;28;20278;-79
2023/02/03 08:50:50;;;;;;;3.30;3.00;;;;;;;8.01;100.00;100559.78;5027910;28;20653;-78
2023/02/03 08:53:18;;;;;;;2.90;2.70;;;;;;;7.92;100.00;100549.41;5027589;28;20311;-78
2023/02/03 08:55:44;;;;;;;3.57;3.27;;;;;;;7.90;100.00;100536.44;5024861;28;20201;-78
2023/02/03 08:58:11;;;;;;;4.23;3.90;;;;;;;7.95;100.00;100529.47;5027536;28;20206;-79
2023/02/03 09:00:37;;;;;;;4.87;3.80;;;;;;;7.98;100.00;100545.94;5026553;28;20275;-79
2023/02/03 09:03:04;;;;;;;3.93;3.53;;;;;;;7.95;100.00;100531.22;5027806;28;20255;-78
2023/02/03 09:05:30;;;;;;;5.10;4.20;;;;;;;7.93;100.00;100533.81;5028338;28;20209;-79
2023/02/03 09:07:57;;;;;;;5.50;4.20;;;;;;;7.90;100.00;100522.59;5027859;28;20200;-79
2023/02/03 09:10:24;;;;;;;4.83;4.33;;;;;;;7.87;100.00;100496.59;5025087;28;20226;-79
2023/02/03 09:12:51;;;;;;;6.67;5.50;;;;;;;7.73;100.00;100482.00;5027956;28;20229;-80
2023/02/03 09:15:17;;;;;;;5.23;4.77;;;;;;;7.63;100.00;100435.28;5025325;28;20234;-78
2023/02/03 09:17:44;;;;;;;8.00;5.70;;;;;;;7.69;100.00;100432.63;5026814;28;20201;-79
2023/02/03 09:20:12;;;;;;;5.67;5.27;;;;;;;7.68;100.00;100442.16;5024866;28;20232;-79
2023/02/03 09:22:38;;;;;;;6.27;4.83;;;;;;;7.70;100.00;100426.56;5030874;28;20677;-79
2023/02/03 09:25:05;;;;;;;8.50;5.27;;;;;;;7.74;100.00;100426.53;5024986;28;20738;-80
2023/02/03 09:27:33;;;;;;;9.27;5.93;;;;;;;7.81;100.00;100434.28;5024148;28;20687;-77
2023/02/03 09:29:59;;;;;;;6.57;5.33;;;;;;;7.88;100.00;100455.00;5025784;28;20223;-79
2023/02/03 09:32:25;;;;;;;8.13;5.37;;;;;;;7.89;100.00;100474.09;5025837;28;20249;-78
2023/02/03 09:34:52;;;;;;;5.70;5.20;;;;;;;7.91;100.00;100469.75;5024924;28;20227;-79
2023/02/03 09:37:18;;;;;;;7.37;4.40;;;;;;;7.91;100.00;100500.94;5026735;28;20205;-80
2023/02/03 09:39:44;;;;;;;5.00;4.60;;;;;;;7.89;100.00;100490.53;5025421;28;20226;-80
2023/02/03 09:42:27;;;;;;;5.80;4.53;;;;;;;7.94;100.00;100493.94;5025750;28;20201;-79
2023/02/03 09:45:05;;;;;;;4.90;3.83;;;;;;;7.94;100.00;100495.69;5028142;28;20284;-80
2023/02/03 09:47:35;;;;;;;4.90;4.07;;;;;;;8.01;100.00;100517.28;5027126;28;20203;-78
2023/02/03 09:50:05;;;;;;;17.83;5.33;;;;;;;8.05;100.00;100524.22;5026874;28;20644;-79
2023/02/03 09:52:33;;;;;;;8.03;4.53;;;;;;;8.01;100.00;100499.09;5030203;28;20229;-77
2023/02/03 09:55:04;;;;;;;7.93;5.40;;;;;;;7.83;100.00;100463.72;5027443;28;20201;-80
2023/02/03 09:57:35;;;;;;;7.07;4.93;;;;;;;7.76;100.00;100434.31;5024169;28;20204;-79
2023/02/03 10:00:16;;;;;;;3.97;3.30;;;;;;;7.73;100.00;100440.41;5024817;28;20257;-79
2023/02/03 10:02:55;;;;;;;7.83;3.80;;;;;;;7.74;100.00;100429.13;5024507;28;20218;-79
2023/02/03 10:05:30;;;;;;;10.27;3.60;;;;;;;7.84;100.00;100458.50;5018206;28;20206;-78
2023/02/03 10:08:06;;;;;;;4.70;2.93;;;;;;;7.93;100.00;100481.00;5015513;28;20632;-78
2023/02/03 10:10:40;;;;;;;6.57;2.90;;;;;;;8.02;100.00;100474.84;5014946;28;20240;-79
2023/02/03 10:13:15;;;;;;;5.73;2.77;;;;;;;8.02;100.00;100504.28;5020045;28;20234;-78
2023/02/03 10:16:36;;;;;;;6.30;2.53;;;;;;;8.00;100.00;100513.84;5024379;28;20198;-80
2023/02/03 10:19:11;;;;;;;5.03;2.50;;;;;;;8.04;100.00;100496.50;4946093;29;20792;-78
2023/02/03 10:21:41;;;;;;;2.67;1.93;;;;;;;7.92;100.00;100508.69;4954530;28;20232;-78
2023/02/03 10:24:15;;;;;;;2.70;1.50;;;;;;;7.96;100.00;100496.53;5007543;28;20217;-79
2023/02/03 10:26:42;;;;;;;3.37;1.87;;;;;;;7.96;100.00;100505.19;5035070;28;20245;-79
2023/02/03 10:29:18;;;;;;;2.43;1.23;;;;;;;8.02;100.00;100509.50;5035994;28;20233;-80
2023/02/03 10:31:46;;;;;;;3.47;1.33;;;;;;;7.94;100.00;100506.09;5035278;28;20213;-80
2023/02/03 10:34:15;;;;;;;2.67;1.20;;;;;;;8.00;100.00;100526.84;5031867;28;20200;-79
2023/02/03 10:36:53;;;;;;;4.23;1.53;;;;;;;8.09;100.00;100557.13;5023631;28;20253;-79
2023/02/03 10:39:25;;;;;;;3.67;1.40;;;;;;;8.08;100.00;100571.84;5023576;28;20311;-80
2023/02/03 10:41:53;;;;;;;2.67;1.10;;;;;;;8.11;100.00;100570.97;5031863;28;20213;-78
2023/02/03 10:44:19;;;;;;;3.07;0.97;;;;;;;8.13;100.00;100600.44;5030419;28;20206;-80
2023/02/03 10:46:45;;;;;;;2.93;1.10;;;;;;;8.13;100.00;100611.69;5030713;28;20202;-80
2023/02/03 10:49:15;;;;;;;2.23;1.10;;;;;;;8.15;100.00;100622.06;5031921;28;20227;-81
2023/02/03 10:51:46;;;;;;;2.43;1.37;;;;;;;8.21;100.00;100642.84;5037738;28;20254;-78
2023/02/03 10:54:28;;;;;;;2.40;1.07;;;;;;;8.16;100.00;100658.44;5030835;28;20239;-78
2023/02/03 10:56:57;;;;;;;3.23;1.30;;;;;;;8.08;100.00;100631.63;5022249;28;20237;-79
2023/02/03 10:59:29;;;;;;;2.63;0.93;;;;;;;8.05;100.00;100654.22;5016522;28;20299;-79
2023/02/03 11:01:55;;;;;;;3.40;1.63;;;;;;;8.07;100.00;100622.13;5014750;28;20197;-81
2023/02/03 11:04:26;;;;;;;3.43;1.50;;;;;;;8.08;100.00;100642.03;5014201;28;20263;-79
2023/02/03 11:06:55;;;;;;;2.20;1.10;;;;;;;8.13;100.00;100657.63;5032433;28;20584;-79
2023/02/03 11:09:31;;;;;;;3.20;1.30;;;;;;;8.12;98.55;100700.94;5074568;22;20236;-80
2023/02/03 11:12:10;;;;;;;1.07;0.70;;;;;;;8.08;97.49;100745.16;5039814;28;20205;-79
2023/02/03 11:14:38;;;;;;;3.27;1.00;;;;;;;8.05;98.25;100729.59;5039336;28;20205;-83
2023/02/03 11:17:09;;;;;;;4.23;1.40;;;;;;;8.08;97.96;100751.22;5037746;28;20216;-80
2023/02/03 11:19:39;;;;;;;3.23;1.63;;;;;;;8.11;97.36;100773.78;5039974;28;20255;-81
2023/02/03 11:22:06;;;;;;;4.67;1.27;;;;;;;8.16;95.12;100785.84;5040241;28;20300;-82
2023/02/03 11:24:37;;;;;;;5.23;1.30;;;;;;;8.14;94.65;100812.75;5038856;28;20567;-81
2023/02/03 11:27:06;;;;;;;4.07;1.43;;;;;;;8.20;94.92;100824.88;5038923;28;20281;-83
2023/02/03 11:29:35;;;;;;;2.20;1.10;;;;;;;8.19;94.40;100824.00;5040330;28;20307;-81
2023/02/03 11:32:05;;;;;;;4.40;1.20;;;;;;;8.20;94.58;100838.72;5040556;28;20220;-81
2023/02/03 11:34:35;;;;;;;4.87;2.07;;;;;;;8.30;94.43;100862.97;5040069;28;20283;-80